createdAt,value
2022-09-28T00:01:26.194Z,2.80
2022-09-28T00:03:54.859Z,2.63
2022-09-28T00:06:24.447Z,2.25
2022-09-28T00:08:51.588Z,2.10
2022-09-28T00:11:20.853Z,1.70
2022-09-28T00:13:52.773Z,1.70
2022-09-28T00:16:21.880Z,1.80
2022-09-28T00:18:51.108Z,1.70
2022-09-28T00:21:21.503Z,1.60
2022-09-28T00:24:10.389Z,1.50
2022-09-28T00:26:37.143Z,2.10
2022-09-28T00:29:04.674Z,2.00
2022-09-28T00:31:34.210Z,2.05
2022-09-28T00:34:01.829Z,2.05
2022-09-28T00:36:29.573Z,1.70
2022-09-28T00:38:58.710Z,1.77
2022-09-28T00:41:27.407Z,1.73
2022-09-28T00:44:15.068Z,1.38
2022-09-28T00:46:45.339Z,1.58
2022-09-28T00:49:16.021Z,1.50
2022-09-28T00:51:45.441Z,1.35
2022-09-28T00:54:14.560Z,0.90
2022-09-28T00:56:43.745Z,0.90
2022-09-28T00:59:10.862Z,0.82
2022-09-28T01:01:37.842Z,0.90
2022-09-28T01:04:06.425Z,1.00
2022-09-28T01:06:34.907Z,0.82
2022-09-28T01:09:04.743Z,0.80
2022-09-28T01:11:32.941Z,0.90
2022-09-28T01:14:00.970Z,0.93
2022-09-28T01:16:39.479Z,0.80
2022-09-28T01:19:22.951Z,1.05
2022-09-28T01:21:53.403Z,1.00
2022-09-28T01:24:39.776Z,0.90
2022-09-28T01:27:13.928Z,0.90
2022-09-28T01:29:48.237Z,0.85
2022-09-28T01:32:25.545Z,0.70
2022-09-28T01:34:58.260Z,1.00
2022-09-28T01:37:31.708Z,1.00
2022-09-28T01:40:02.527Z,0.80
2022-09-28T01:42:34.899Z,1.10
2022-09-28T01:45:08.084Z,0.80
2022-09-28T01:47:38.673Z,1.10
2022-09-28T01:50:10.511Z,0.80
2022-09-28T01:52:44.656Z,0.82
2022-09-28T01:55:18.706Z,0.90
2022-09-28T01:57:50.253Z,1.15
2022-09-28T02:00:19.534Z,1.08
2022-09-28T02:02:50.588Z,1.10
2022-09-28T02:05:21.203Z,1.40
2022-09-28T02:07:57.381Z,1.05
2022-09-28T02:10:27.774Z,1.00
2022-09-28T02:13:01.355Z,0.93
2022-09-28T02:15:33.968Z,0.70
2022-09-28T02:18:00.680Z,0.70
2022-09-28T02:20:32.065Z,0.73
2022-09-28T02:23:01.370Z,0.70
2022-09-28T02:25:35.331Z,0.50
2022-09-28T02:30:33.968Z,0.70
2022-09-28T02:33:05.258Z,0.50
2022-09-28T02:35:33.951Z,0.40
2022-09-28T02:38:00.637Z,0.50
2022-09-28T02:40:31.927Z,0.40
2022-09-28T02:43:08.591Z,0.38
2022-09-28T02:45:49.860Z,0.40
2022-09-28T02:48:43.008Z,0.50
2022-09-28T02:51:21.186Z,0.60
2022-09-28T02:54:05.313Z,0.60
2022-09-28T02:56:54.487Z,0.60
2022-09-28T02:59:39.882Z,0.70
2022-09-28T03:02:13.373Z,0.60
2022-09-28T03:04:45.380Z,0.70
2022-09-28T03:07:19.904Z,0.90
2022-09-28T03:09:54.161Z,0.80
2022-09-28T03:12:23.559Z,0.98
2022-09-28T03:15:06.443Z,0.85
2022-09-28T03:17:33.065Z,0.80
2022-09-28T03:19:59.652Z,0.82
2022-09-28T03:22:26.300Z,0.80
2022-09-28T03:24:52.932Z,1.00
2022-09-28T03:27:19.669Z,0.90
2022-09-28T03:29:46.496Z,0.95
2022-09-28T03:32:14.473Z,1.35
2022-09-28T03:34:41.062Z,0.93
2022-09-28T03:37:07.667Z,0.98
2022-09-28T03:39:34.354Z,0.93
2022-09-28T03:42:01.290Z,0.90
2022-09-28T03:44:27.872Z,0.85
2022-09-28T03:46:54.530Z,0.98
2022-09-28T03:49:22.554Z,0.80
2022-09-28T03:51:49.223Z,0.90
2022-09-28T03:54:15.901Z,0.85
2022-09-28T03:56:42.527Z,0.95
2022-09-28T03:59:09.154Z,0.73
2022-09-28T04:01:35.909Z,0.98
2022-09-28T04:04:02.596Z,1.00
2022-09-28T04:06:30.626Z,0.88
2022-09-28T04:08:57.391Z,0.80
2022-09-28T04:11:24.301Z,0.70
2022-09-28T04:13:51.082Z,0.80
2022-09-28T04:16:18.655Z,0.80
2022-09-28T04:18:45.373Z,1.00
2022-09-28T04:21:13.750Z,1.00
2022-09-28T04:23:41.745Z,1.15
2022-09-28T04:26:13.139Z,0.95
2022-09-28T04:29:02.730Z,1.17
2022-09-28T04:31:38.961Z,1.00
2022-09-28T04:34:05.763Z,1.20
2022-09-28T04:36:32.474Z,1.42
2022-09-28T04:39:00.943Z,1.20
2022-09-28T04:41:27.605Z,1.42
2022-09-28T04:43:54.278Z,1.35
2022-09-28T04:46:21.248Z,1.55
2022-09-28T04:48:48.102Z,1.27
2022-09-28T04:51:15.147Z,1.40
2022-09-28T04:53:41.757Z,1.52
2022-09-28T04:56:12.554Z,1.20
2022-09-28T04:58:39.993Z,1.40
2022-09-28T05:01:08.686Z,1.65
2022-09-28T05:03:35.774Z,1.88
2022-09-28T05:06:02.867Z,1.55
2022-09-28T05:08:30.062Z,1.50
2022-09-28T05:10:58.458Z,1.30
2022-09-28T05:13:27.191Z,1.17
2022-09-28T05:15:58.861Z,1.40
2022-09-28T05:18:27.621Z,1.50
2022-09-28T05:20:54.166Z,1.45
2022-09-28T05:23:20.839Z,1.52
2022-09-28T05:25:47.459Z,1.80
2022-09-28T05:28:14.092Z,1.60
2022-09-28T05:30:42.591Z,1.50
2022-09-28T05:33:09.579Z,1.60
2022-09-28T05:35:36.407Z,1.50
2022-09-28T05:38:04.407Z,1.70
2022-09-28T05:40:31.748Z,1.95
2022-09-28T05:43:02.393Z,1.60
2022-09-28T05:45:29.583Z,1.85
2022-09-28T05:47:57.564Z,2.05
2022-09-28T05:50:24.519Z,2.10
2022-09-28T05:53:01.783Z,2.10
2022-09-28T05:55:28.956Z,1.60
2022-09-28T05:57:58.188Z,1.92
2022-09-28T06:00:25.238Z,2.00
2022-09-28T06:03:04.318Z,2.10
2022-09-28T06:05:36.236Z,2.03
2022-09-28T06:08:05.160Z,1.77
2022-09-28T06:10:32.915Z,2.15
2022-09-28T06:13:00.140Z,1.95
2022-09-28T06:15:28.716Z,2.13
2022-09-28T06:18:01.423Z,2.20
2022-09-28T06:20:30.020Z,2.78
2022-09-28T06:22:57.124Z,2.50
2022-09-28T06:25:24.419Z,2.65
2022-09-28T06:27:55.372Z,2.30
2022-09-28T06:30:22.649Z,2.10
2022-09-28T06:32:52.401Z,2.20
2022-09-28T22:37:55.142Z,1.10
2022-09-28T22:40:22.738Z,1.17
2022-09-28T22:42:49.662Z,1.02
2022-09-28T22:45:16.279Z,1.40
2022-09-28T22:47:43.019Z,1.00
2022-09-28T22:50:10.059Z,0.98
2022-09-28T22:52:37.044Z,0.90
2022-09-28T22:55:06.014Z,0.80
2022-09-28T22:57:32.625Z,1.10
2022-09-28T22:59:59.293Z,1.20
2022-09-28T23:02:25.980Z,0.80
2022-09-28T23:04:52.599Z,1.02
2022-09-28T23:07:19.912Z,0.90
2022-09-28T23:09:46.846Z,1.30
2022-09-28T23:12:14.933Z,1.10
2022-09-28T23:14:41.709Z,1.10
2022-09-28T23:17:08.462Z,0.90
2022-09-28T23:19:35.118Z,0.90
2022-09-28T23:22:01.740Z,1.00
2022-09-28T23:24:28.423Z,0.85
2022-09-28T23:26:55.029Z,0.90
2022-09-28T23:29:23.311Z,1.00
2022-09-28T23:31:49.966Z,0.90
2022-09-28T23:34:16.768Z,1.13
2022-09-28T23:36:43.569Z,1.10
2022-09-28T23:39:11.678Z,1.10
2022-09-28T23:41:39.876Z,0.77
2022-09-28T23:44:06.672Z,1.30
2022-09-28T23:46:34.852Z,1.00
2022-09-28T23:49:01.692Z,0.82
2022-09-28T23:51:28.647Z,1.10
2022-09-28T23:53:55.299Z,1.38
2022-09-28T23:56:22.027Z,1.50
2022-09-28T23:58:48.631Z,1.58
